Latest Weather Observations for Rottnest Island

IDW60901

Issued at 1:41 pm WST Tuesday 19 January 2021 (issued every 10 minutes, with the page automatically refreshed every 10 minutes)

About weather observations | Map of Perth area stations | Latest observations for Perth area | Other Formats
Station Details ID: 009193 Name: ROTTNEST ISLAND Lat: -32.01 Lon: 115.50 Height: 43.1 m
Data from the previous 72 hours. | See also: Recent months at Rottnest Island
Date/Time
WST
Temp
°C
App
Temp
°C
Dew
Point
°C
Rel
Hum
%
Delta-T
°C
Wind Press
QNH
hPa
Press
MSL
hPa
Rain since
9am
mm
Dir  Spd
km/h
Gust
km/h
Spd
kts
Gust
kts
19/01:30pm 30.1 27.1 12.5 34 10.4 WNW 20 24 11 13 1009.0 1008.8 0.0
19/01:00pm 30.4 26.9 10.9 30 11.2 NW 20 26 11 14 1009.2 1009.0 0.0
19/12:30pm 30.2 27.8 12.6 34 10.4 NW 17 20 9 11 1009.4 1009.2 0.0
19/12:00pm 29.5 27.6 12.9 36 9.8 NNW 15 20 8 11 1009.6 1009.4 0.0
19/11:30am 28.1 27.4 15.4 46 7.8 NW 13 17 7 9 1009.9 1009.7 0.0
19/11:00am 27.5 26.6 15.8 48 7.2 NW 15 17 8 9 1010.2 1010.0 0.0
19/10:30am 30.0 30.8 16.4 44 8.5 S 7 11 4 6 1010.2 1010.0 0.0
19/10:00am 28.5 29.5 17.7 52 6.9 S 9 13 5 7 1010.4 1010.2 0.0
19/09:30am 27.3 27.8 16.6 52 6.6 SSE 9 15 5 8 1010.7 1010.5 0.0
19/09:00am 27.8 27.6 14.8 45 7.9 NNE 9 13 5 7 1010.7 1010.5 0.0
19/08:30am 25.7 25.0 15.4 53 6.2 NNW 13 19 7 10 1010.9 1010.7 0.0
19/08:00am 25.3 24.2 16.4 57 5.5 NW 17 20 9 11 1010.9 1010.7 0.0
19/07:30am 24.8 24.6 16.8 61 4.9 NNW 13 20 7 11 1011.0 1010.8 0.0
19/07:00am 24.3 23.8 16.8 63 4.6 NNW 15 19 8 10 1010.8 1010.6 0.0
19/06:30am 23.2 23.0 17.7 71 3.4 NW 15 17 8 9 1010.7 1010.5 0.0
19/06:00am 23.3 22.9 18.0 72 3.3 NW 17 19 9 10 1010.5 1010.3 0.0
19/05:30am 23.1 22.8 18.2 74 3.1 NW 17 19 9 10 1010.3 1010.1 0.0
19/05:00am 23.3 22.8 17.7 71 3.5 NNW 17 20 9 11 1010.3 1010.1 0.0
19/04:30am 22.9 22.5 18.0 74 3.1 NNW 17 20 9 11 1009.9 1009.7 0.0
19/04:00am 23.1 22.6 17.8 72 3.3 NNW 17 20 9 11 1009.8 1009.6 0.0
19/03:30am 23.6 23.6 18.0 71 3.5 N 15 19 8 10 1010.0 1009.8 0.0
19/03:00am 25.2 24.1 14.3 50 6.5 ENE 13 17 7 9 1009.8 1009.6 0.0
19/02:30am 25.1 23.4 14.6 52 6.3 ENE 17 22 9 12 1009.7 1009.5 0.0
19/02:00am 25.5 23.2 14.0 49 6.8 ENE 19 24 10 13 1010.0 1009.8 0.0
19/01:30am 25.2 23.5 14.6 51 6.3 ENE 17 24 9 13 1010.1 1009.9 0.0
19/01:00am 25.4 23.2 14.5 51 6.5 ENE 19 26 10 14 1010.4 1010.2 0.0
19/12:30am 25.6 23.3 14.7 51 6.5 ENE 20 26 11 14 1010.6 1010.4 0.0
19/12:00am 25.8 23.5 14.6 50 6.7 NE 20 28 11 15 1011.0 1010.8 0.0
 
Date/Time
WST
Temp
°C
App
Temp
°C
Dew
Point
°C
Rel
Hum
%
Delta-T
°C
Wind Press
QNH
hPa
Press
MSL
hPa
Rain since
9am
mm
Dir  Spd
km/h
Gust
km/h
Spd
kts
Gust
kts
18/11:30pm 25.6 23.4 15.0 52 6.4 NE 20 26 11 14 1011.2 1011.0 0.0
18/11:00pm 25.3 22.6 14.7 51 6.3 ENE 22 30 12 16 1011.2 1011.0 0.0
18/10:30pm 25.4 22.7 14.5 51 6.5 ENE 22 30 12 16 1011.2 1011.0 0.0
18/10:00pm 25.2 23.0 14.9 52 6.2 ENE 20 28 11 15 1011.4 1011.2 0.0
18/09:30pm 24.9 23.0 15.8 57 5.5 ENE 20 28 11 15 1011.6 1011.4 0.0
18/09:00pm 24.3 22.6 17.1 64 4.5 NE 22 30 12 16 1011.6 1011.4 0.0
18/08:30pm 23.9 22.4 17.6 68 3.9 NE 22 30 12 16 1011.6 1011.4 0.0
18/08:00pm 24.8 22.4 16.5 60 5.1 NE 24 33 13 18 1011.2 1011.0 0.0
18/07:30pm 24.8 22.6 16.8 61 4.9 NE 24 32 13 17 1011.1 1010.9 0.0
18/07:00pm 25.1 21.7 16.8 60 5.1 NE 30 41 16 22 1011.2 1011.0 0.0
18/06:30pm 24.5 20.9 17.2 63 4.5 NNE 32 39 17 21 1011.4 1011.2 0.0
18/06:00pm 24.4 22.3 18.1 68 4.0 NNE 26 33 14 18 1011.2 1011.0 0.0
18/05:30pm 24.9 23.1 17.9 65 4.4 NNE 24 30 13 16 1011.7 1011.5 0.0
18/05:00pm 26.2 22.3 16.4 54 6.1 NNE 32 39 17 21 1011.4 1011.2 0.0
18/04:30pm 26.9 22.1 15.6 50 6.9 NNE 35 46 19 25 1010.7 1010.5 0.0
18/04:00pm 27.2 24.6 17.7 56 6.0 N 28 35 15 19 1011.4 1011.2 0.0
18/03:30pm 29.0 26.8 15.9 45 8.1 NNE 22 30 12 16 1011.5 1011.3 0.0
18/03:00pm 30.2 27.9 14.7 39 9.5 NE 20 26 11 14 1011.5 1011.3 0.0
18/02:30pm 29.7 26.7 14.7 40 9.1 NE 24 32 13 17 1011.8 1011.6 0.0
18/02:00pm 30.1 26.8 15.0 40 9.3 NE 26 35 14 19 1011.7 1011.5 0.0
18/01:30pm 28.8 24.3 13.9 40 8.9 NE 30 37 16 20 1011.7 1011.5 0.0
18/01:00pm 28.4 23.5 14.3 42 8.5 NE 33 44 18 24 1011.9 1011.7 0.0
18/12:30pm 28.1 23.3 14.0 42 8.4 NE 32 43 17 23 1012.5 1012.3 0.0
18/12:00pm 28.3 23.2 13.0 39 9.0 NE 32 44 17 24 1012.6 1012.4 0.0
18/11:56am 28.8 23.3 11.8 35 9.9 NE 32 50 17 27 1012.7 1012.5 0.0
18/11:30am 28.4 22.9 12.3 37 9.4 NE 33 46 18 25 1012.7 1012.5 0.0
18/11:00am 28.6 22.2 12.1 36 9.6 NE 37 46 20 25 1013.3 1013.1 0.0
18/10:30am 28.1 21.2 11.6 36 9.5 NE 39 48 21 26 1013.5 1013.3 0.0
18/10:00am 26.8 21.1 11.7 39 8.7 NNE 33 43 18 23 1013.7 1013.5 0.0
18/09:30am 26.7 20.7 10.0 35 9.3 NE 32 44 17 24 1013.7 1013.5 0.0
18/09:00am 26.3 20.2 10.5 37 8.9 NE 33 43 18 23 1013.9 1013.7 0.0
18/08:30am 26.6 21.2 9.5 34 9.4 NE 28 41 15 22 1014.0 1013.8 0.0
18/08:00am 27.3 21.0 7.2 28 10.7 ENE 30 41 16 22 1014.3 1014.1 0.0
18/07:30am 26.3 20.9 7.8 31 9.9 ENE 26 37 14 20 1014.3 1014.1 0.0
18/07:00am 25.8 20.5 6.9 30 9.9 ENE 24 35 13 19 1014.1 1013.9 0.0
18/06:30am 26.0 20.2 6.1 28 10.3 ENE 26 35 14 19 1014.1 1013.9 0.0
18/06:00am 24.8 20.2 8.3 35 8.8 ENE 22 30 12 16 1013.7 1013.5 0.0
18/05:30am 24.5 18.8 6.7 32 9.2 ENE 26 32 14 17 1013.4 1013.2 0.0
18/05:00am 24.9 19.4 5.7 29 9.8 ENE 24 33 13 18 1013.2 1013.0 0.0
18/04:30am 25.2 19.9 6.9 31 9.6 ENE 24 32 13 17 1012.6 1012.4 0.0
18/04:00am 25.4 20.5 7.1 31 9.6 E 22 32 12 17 1012.5 1012.3 0.0
18/03:30am 25.7 20.7 6.3 29 10.1 E 22 32 12 17 1012.4 1012.2 0.0
18/03:00am 26.1 21.7 7.2 30 10.0 E 20 30 11 16 1012.3 1012.1 0.0
18/02:30am 26.8 21.1 6.8 28 10.5 E 26 35 14 19 1012.0 1011.8 0.0
18/02:00am 26.9 21.5 6.3 27 10.8 E 24 35 13 19 1011.9 1011.7 0.0
18/01:30am 27.4 22.2 7.3 28 10.7 E 24 33 13 18 1012.2 1012.0 0.0
18/01:00am 27.6 22.6 8.0 29 10.6 E 24 32 13 17 1012.3 1012.1 0.0
18/12:30am 27.7 22.7 8.1 29 10.6 E 24 32 13 17 1012.3 1012.1 0.0
18/12:00am 27.7 23.7 6.5 26 11.2 E 17 26 9 14 1012.6 1012.4 0.0
 
Date/Time
WST
Temp
°C
App
Temp
°C
Dew
Point
°C
Rel
Hum
%
Delta-T
°C
Wind Press
QNH
hPa
Press
MSL
hPa
Rain since
9am
mm
Dir  Spd
km/h
Gust
km/h
Spd
kts
Gust
kts
17/11:30pm 27.7 23.1 6.5 26 11.2 E 20 26 11 14 1012.8 1012.6 0.0
17/11:00pm 27.4 23.5 8.8 31 10.2 ESE 19 26 10 14 1013.0 1012.8 0.0
17/10:30pm 27.7 23.9 9.0 31 10.3 ESE 19 24 10 13 1013.1 1012.9 0.0
17/10:00pm 28.1 24.3 8.9 30 10.6 ESE 19 24 10 13 1013.1 1012.9 0.0
17/09:30pm 28.6 25.0 9.8 31 10.5 ESE 19 26 10 14 1013.2 1013.0 0.0
17/09:00pm 28.5 24.9 10.7 33 10.1 ESE 20 26 11 14 1013.0 1012.8 0.0
17/08:30pm 29.2 25.6 9.9 30 10.9 ESE 19 24 10 13 1012.9 1012.7 0.0
17/08:00pm 29.8 26.3 8.8 27 11.6 ESE 17 22 9 12 1013.0 1012.8 0.0
17/07:30pm 28.2 26.6 12.9 38 9.0 ESE 13 17 7 9 1012.9 1012.7 0.0
17/07:00pm 26.2 27.0 17.3 58 5.6 SSE 9 13 5 7 1012.9 1012.7 0.0
17/06:30pm 26.7 26.8 17.5 57 5.8 SSE 13 17 7 9 1012.7 1012.5 0.0
17/06:00pm 27.8 27.7 17.0 51 6.8 S 13 17 7 9 1012.6 1012.4 0.0
17/05:30pm 29.4 28.9 15.9 44 8.4 S 13 20 7 11 1012.4 1012.2 0.0
17/05:00pm 30.0 27.3 12.9 35 10.1 S 19 24 10 13 1012.4 1012.2 0.0
17/04:30pm 30.4 28.6 14.5 38 9.7 S 17 20 9 11 1012.7 1012.5 0.0
17/04:00pm 30.4 28.3 13.7 36 10.0 S 17 22 9 12 1013.0 1012.8 0.0
17/03:30pm 30.8 28.0 12.7 33 10.7 SSE 19 24 10 13 1013.3 1013.1 0.0
17/03:00pm 33.7 28.4 6.9 19 14.7 E 24 33 13 18 1013.6 1013.4 0.0
17/02:30pm 33.4 28.2 7.4 20 14.4 E 24 30 13 16 1013.9 1013.7 0.0
17/02:00pm 33.0 27.8 7.1 20 14.2 E 24 33 13 18 1014.1 1013.9 0.0
17/01:30pm 33.0 28.1 8.5 22 13.7 E 24 35 13 19 1014.5 1014.3 0.0
17/01:00pm 31.9 25.8 8.2 23 13.1 E 30 41 16 22 1014.8 1014.6 0.0
17/12:30pm 31.0 24.3 8.1 24 12.6 E 33 43 18 23 1014.9 1014.7 0.0
17/12:00pm 30.8 24.4 8.5 25 12.4 E 32 39 17 21 1015.3 1015.1 0.0
17/11:30am 30.2 23.8 8.6 26 12.0 ENE 32 44 17 24 1015.7 1015.5 0.0
17/11:00am 29.5 22.9 8.5 27 11.6 ENE 33 46 18 25 1015.9 1015.7 0.0
17/10:30am 28.4 22.0 8.7 29 10.8 ENE 32 46 17 25 1016.0 1015.8 0.0
17/10:00am 27.8 21.5 9.1 31 10.3 ENE 32 44 17 24 1015.9 1015.7 0.0
17/09:30am 26.4 20.1 8.8 33 9.6 ENE 32 44 17 24 1016.0 1015.8 0.0
17/09:00am 25.8 19.3 8.8 34 9.2 ENE 33 43 18 23 1016.2 1016.0 0.0
17/08:44am 25.7 19.4 9.1 35 9.1 ENE 32 50 17 27 1016.3 1016.1 0.0
17/08:30am 24.3 17.7 8.7 37 8.4 ENE 33 46 18 25 1016.3 1016.1 0.0
17/08:00am 23.8 17.6 9.4 40 7.8 E 32 46 17 25 1016.5 1016.3 0.0
17/07:30am 22.8 15.4 8.5 40 7.6 E 37 57 20 31 1016.2 1016.0 0.0
17/07:12am 22.6 15.0 9.0 42 7.3 E 39 57 21 31 1016.3 1016.1 0.0
17/07:00am 22.2 14.9 8.7 42 7.2 E 37 54 20 29 1016.3 1016.1 0.0
17/06:30am 21.7 15.4 8.9 44 6.8 E 32 50 17 27 1016.3 1016.1 0.0
17/06:15am 21.5 15.6 9.1 45 6.6 E 30 48 16 26 1016.2 1016.0 0.0
17/06:00am 21.4 15.6 9.3 46 6.5 E 30 41 16 22 1016.3 1016.1 0.0
17/05:30am 20.9 15.0 9.2 47 6.2 E 30 41 16 22 1015.9 1015.7 0.0
17/05:00am 20.3 15.1 10.1 52 5.5 E 28 35 15 19 1015.6 1015.4 0.0
17/04:30am 20.5 14.8 9.7 50 5.8 E 30 41 16 22 1015.2 1015.0 0.0
17/04:00am 20.7 15.0 9.9 50 5.8 E 30 39 16 21 1014.9 1014.7 0.0
17/03:30am 20.9 14.8 9.8 49 6.0 E 32 43 17 23 1014.6 1014.4 0.0
17/03:00am 21.1 15.0 9.7 48 6.1 E 32 44 17 24 1014.7 1014.5 0.0
17/02:30am 21.4 15.6 9.6 47 6.3 E 30 48 16 26 1014.7 1014.5 0.0
17/02:29am 21.4 15.6 9.6 47 6.3 E 30 48 16 26 1014.7 1014.5 0.0
17/02:00am 22.0 15.6 9.5 45 6.7 E 33 48 18 26 1014.6 1014.4 0.0
17/01:30am 22.4 16.6 9.6 44 6.9 ESE 30 41 16 22 1014.7 1014.5 0.0
17/01:05am 22.9 17.1 9.3 42 7.3 ESE 30 48 16 26 1014.7 1014.5 0.0
17/01:00am 23.0 16.7 9.0 41 7.5 ESE 32 48 17 26 1014.6 1014.4 0.0
17/12:30am 23.6 17.9 9.9 42 7.5 ESE 30 41 16 22 1014.6 1014.4 0.0
17/12:00am 24.2 18.8 9.4 39 8.0 ESE 28 37 15 20 1014.6 1014.4 0.0
 
Date/Time
WST
Temp
°C
App
Temp
°C
Dew
Point
°C
Rel
Hum
%
Delta-T
°C
Wind Press
QNH
hPa
Press
MSL
hPa
Rain since
9am
mm
Dir  Spd
km/h
Gust
km/h
Spd
kts
Gust
kts
16/11:30pm 25.3 19.4 7.4 32 9.5 ESE 28 39 15 21 1014.4 1014.2 0.0
16/11:21pm 25.8 19.9 7.4 31 9.8 ESE 28 46 15 25 1014.4 1014.2 0.0
16/11:00pm 26.7 19.5 5.1 25 11.0 E 32 44 17 24 1014.2 1014.0 0.0
16/10:41pm 26.9 20.0 4.6 24 11.3 E 30 48 16 26 1014.1 1013.9 0.0
16/10:30pm 27.0 20.4 5.9 26 11.0 ESE 30 43 16 23 1014.1 1013.9 0.0
16/10:00pm 26.5 21.6 8.5 32 9.8 ESE 24 39 13 21 1013.8 1013.6 0.0
16/09:30pm 26.8 21.6 8.7 32 9.9 ESE 26 37 14 20 1013.6 1013.4 0.0
16/09:00pm 27.3 22.5 8.7 31 10.2 ESE 24 35 13 19 1013.4 1013.2 0.0
16/08:30pm 27.6 23.2 10.3 34 9.7 ESE 24 35 13 19 1013.2 1013.0 0.0
16/08:00pm 27.8 23.8 10.5 34 9.8 ESE 22 30 12 16 1013.0 1012.8 0.0
16/07:30pm 28.0 24.2 11.1 35 9.6 ESE 22 30 12 16 1012.7 1012.5 0.0
16/07:00pm 28.8 24.9 10.9 33 10.2 ESE 22 32 12 17 1012.5 1012.3 0.0
16/06:30pm 29.7 25.4 10.8 31 10.8 ESE 24 32 13 17 1012.4 1012.2 0.0
16/06:00pm 30.5 26.9 10.5 29 11.4 ESE 20 32 11 17 1012.4 1012.2 0.0
16/05:30pm 30.5 27.2 11.5 31 11.0 ESE 20 28 11 15 1012.4 1012.2 0.0
16/05:00pm 31.4 27.5 10.7 28 11.9 ESE 22 30 12 16 1012.4 1012.2 0.0
16/04:30pm 31.8 29.0 13.1 32 11.2 ESE 20 32 11 17 1012.5 1012.3 0.0
16/04:00pm 32.0 28.6 11.2 28 12.1 ESE 20 32 11 17 1012.7 1012.5 0.0
16/03:30pm 32.0 28.0 11.7 28 11.9 ESE 24 33 13 18 1012.9 1012.7 0.0
16/03:00pm 32.4 28.9 12.1 29 12.0 ESE 22 35 12 19 1013.3 1013.1 0.0
16/02:30pm 30.9 25.7 10.3 28 11.8 E 28 39 15 21 1013.5 1013.3 0.0
16/02:00pm 31.6 27.5 11.4 29 11.8 E 24 33 13 18 1013.8 1013.6 0.0

Latest Capital City Observations: Canberra | Sydney | Melbourne | Brisbane | Adelaide | Perth | Hobart | Darwin

Other formats

Comma delimited format used in spreadsheet applications
http://www.bom.gov.au/fwo/IDW60901/IDW60901.94602.axf

JavaScript Object Notation format (JSON) in row-major order
http://www.bom.gov.au/fwo/IDW60901/IDW60901.94602.json

Data quality

Most of these data are generated automatically and are frequently updated. Quality checks on data are not normally performed. It is possible for incorrect values to appear. Refer to information at About Latest Weather Observations and please check the disclaimer before using these data.